sensor_id;sensor_type;location;lat;lon;timestamp;temperature;humidity
60717;DHT22;46566;52.700;6.192;2023-04-25T00:01:28;6.30;99.90
60717;DHT22;46566;52.700;6.192;2023-04-25T00:03:54;6.30;99.90
60717;DHT22;46566;52.700;6.192;2023-04-25T00:06:20;6.20;99.90
60717;DHT22;46566;52.700;6.192;2023-04-25T00:08:45;6.20;99.90
60717;DHT22;46566;52.700;6.192;2023-04-25T00:11:11;6.20;99.90
60717;DHT22;46566;52.700;6.192;2023-04-25T00:13:37;6.10;99.90
60717;DHT22;46566;52.700;6.192;2023-04-25T00:16:03;6.10;99.90
60717;DHT22;46566;52.700;6.192;2023-04-25T00:18:29;6.10;99.90
60717;DHT22;46566;52.700;6.192;2023-04-25T00:20:55;6.00;99.90
60717;DHT22;46566;52.700;6.192;2023-04-25T00:23:21;6.00;99.90
60717;DHT22;46566;52.700;6.192;2023-04-25T00:25:49;6.00;99.90
60717;DHT22;46566;52.700;6.192;2023-04-25T00:28:15;6.00;99.90
60717;DHT22;46566;52.700;6.192;2023-04-25T00:30:42;6.00;99.90
60717;DHT22;46566;52.700;6.192;2023-04-25T00:33:09;5.90;99.90
60717;DHT22;46566;52.700;6.192;2023-04-25T00:35:35;5.90;99.90
60717;DHT22;46566;52.700;6.192;2023-04-25T00:38:01;5.90;99.90
60717;DHT22;46566;52.700;6.192;2023-04-25T00:40:27;5.90;99.90
60717;DHT22;46566;52.700;6.192;2023-04-25T00:42:53;5.90;99.90
60717;DHT22;46566;52.700;6.192;2023-04-25T00:45:19;5.90;99.90
60717;DHT22;46566;52.700;6.192;2023-04-25T00:47:46;5.90;99.90
60717;DHT22;46566;52.700;6.192;2023-04-25T00:50:13;5.90;99.90
60717;DHT22;46566;52.700;6.192;2023-04-25T00:52:42;5.90;99.90
60717;DHT22;46566;52.700;6.192;2023-04-25T00:55:08;5.90;99.90
60717;DHT22;46566;52.700;6.192;2023-04-25T00:57:35;5.90;99.90
60717;DHT22;46566;52.700;6.192;2023-04-25T01:00:01;5.80;99.90
60717;DHT22;46566;52.700;6.192;2023-04-25T01:02:28;5.90;99.90
60717;DHT22;46566;52.700;6.192;2023-04-25T01:04:54;5.80;99.90
60717;DHT22;46566;52.700;6.192;2023-04-25T01:07:20;5.80;99.90
60717;DHT22;46566;52.700;6.192;2023-04-25T01:09:46;5.80;99.90
60717;DHT22;46566;52.700;6.192;2023-04-25T01:12:12;5.80;99.90
60717;DHT22;46566;52.700;6.192;2023-04-25T01:14:40;5.80;99.90
60717;DHT22;46566;52.700;6.192;2023-04-25T01:17:06;5.80;99.90
60717;DHT22;46566;52.700;6.192;2023-04-25T01:19:33;5.80;99.90
60717;DHT22;46566;52.700;6.192;2023-04-25T01:21:59;5.80;99.90
60717;DHT22;46566;52.700;6.192;2023-04-25T01:24:25;5.80;99.90
60717;DHT22;46566;52.700;6.192;2023-04-25T01:26:51;5.90;99.90
60717;DHT22;46566;52.700;6.192;2023-04-25T01:29:23;5.90;99.90
60717;DHT22;46566;52.700;6.192;2023-04-25T01:31:50;5.90;99.90
60717;DHT22;46566;52.700;6.192;2023-04-25T01:34:16;5.80;99.90
60717;DHT22;46566;52.700;6.192;2023-04-25T01:36:42;5.90;99.90
60717;DHT22;46566;52.700;6.192;2023-04-25T01:39:09;5.90;99.90
60717;DHT22;46566;52.700;6.192;2023-04-25T01:41:35;5.90;99.90
60717;DHT22;46566;52.700;6.192;2023-04-25T01:44:02;5.90;99.90
60717;DHT22;46566;52.700;6.192;2023-04-25T01:46:28;5.90;99.90
60717;DHT22;46566;52.700;6.192;2023-04-25T01:48:54;5.90;99.90
60717;DHT22;46566;52.700;6.192;2023-04-25T01:51:20;5.90;99.90
60717;DHT22;46566;52.700;6.192;2023-04-25T01:53:46;5.90;99.90
60717;DHT22;46566;52.700;6.192;2023-04-25T01:56:12;5.90;99.90
60717;DHT22;46566;52.700;6.192;2023-04-25T01:58:38;5.90;99.90
60717;DHT22;46566;52.700;6.192;2023-04-25T02:01:12;5.90;99.90
60717;DHT22;46566;52.700;6.192;2023-04-25T02:03:44;5.90;99.90
60717;DHT22;46566;52.700;6.192;2023-04-25T02:06:20;5.90;99.90
60717;DHT22;46566;52.700;6.192;2023-04-25T02:08:47;6.00;99.90
60717;DHT22;46566;52.700;6.192;2023-04-25T02:11:13;5.90;99.90
60717;DHT22;46566;52.700;6.192;2023-04-25T02:13:45;6.00;99.90
60717;DHT22;46566;52.700;6.192;2023-04-25T02:16:23;6.00;99.90
60717;DHT22;46566;52.700;6.192;2023-04-25T02:18:48;6.00;99.90
60717;DHT22;46566;52.700;6.192;2023-04-25T02:21:14;6.00;99.90
60717;DHT22;46566;52.700;6.192;2023-04-25T02:23:42;6.00;99.90
60717;DHT22;46566;52.700;6.192;2023-04-25T02:26:08;6.00;99.90
60717;DHT22;46566;52.700;6.192;2023-04-25T02:28:35;6.00;99.90
60717;DHT22;46566;52.700;6.192;2023-04-25T02:31:04;6.00;99.90
60717;DHT22;46566;52.700;6.192;2023-04-25T02:33:30;5.90;99.90
60717;DHT22;46566;52.700;6.192;2023-04-25T02:35:57;5.90;99.90
60717;DHT22;46566;52.700;6.192;2023-04-25T02:38:22;5.90;99.90
60717;DHT22;46566;52.700;6.192;2023-04-25T02:40:48;5.90;99.90
60717;DHT22;46566;52.700;6.192;2023-04-25T02:43:14;5.90;99.90
60717;DHT22;46566;52.700;6.192;2023-04-25T02:45:39;5.90;99.90
60717;DHT22;46566;52.700;6.192;2023-04-25T02:48:05;5.90;99.90
60717;DHT22;46566;52.700;6.192;2023-04-25T02:50:31;5.90;99.90
60717;DHT22;46566;52.700;6.192;2023-04-25T02:52:57;5.90;99.90
60717;DHT22;46566;52.700;6.192;2023-04-25T02:55:28;5.90;99.90
60717;DHT22;46566;52.700;6.192;2023-04-25T02:57:57;5.90;99.90
60717;DHT22;46566;52.700;6.192;2023-04-25T03:00:38;5.90;99.90
60717;DHT22;46566;52.700;6.192;2023-04-25T03:03:04;5.90;99.90
60717;DHT22;46566;52.700;6.192;2023-04-25T03:05:30;5.90;99.90
60717;DHT22;46566;52.700;6.192;2023-04-25T03:07:56;5.90;99.90
60717;DHT22;46566;52.700;6.192;2023-04-25T03:10:21;5.90;99.90
60717;DHT22;46566;52.700;6.192;2023-04-25T03:12:47;5.90;99.90
60717;DHT22;46566;52.700;6.192;2023-04-25T03:15:13;5.80;99.90
60717;DHT22;46566;52.700;6.192;2023-04-25T03:17:39;5.80;99.90
60717;DHT22;46566;52.700;6.192;2023-04-25T03:20:06;5.80;99.90
60717;DHT22;46566;52.700;6.192;2023-04-25T03:22:33;5.80;99.90
60717;DHT22;46566;52.700;6.192;2023-04-25T03:24:59;5.80;99.90
60717;DHT22;46566;52.700;6.192;2023-04-25T03:27:25;5.80;99.90
60717;DHT22;46566;52.700;6.192;2023-04-25T03:29:51;5.80;99.90
60717;DHT22;46566;52.700;6.192;2023-04-25T03:32:18;5.80;99.90
60717;DHT22;46566;52.700;6.192;2023-04-25T04:01:57;5.70;99.90
60717;DHT22;46566;52.700;6.192;2023-04-25T04:11:51;5.60;99.90
60717;DHT22;46566;52.700;6.192;2023-04-25T04:14:17;5.60;99.90
60717;DHT22;46566;52.700;6.192;2023-04-25T04:16:45;5.60;99.90
60717;DHT22;46566;52.700;6.192;2023-04-25T04:19:10;5.50;99.90
60717;DHT22;46566;52.700;6.192;2023-04-25T04:21:38;5.50;99.90
60717;DHT22;46566;52.700;6.192;2023-04-25T04:24:04;5.50;99.90
60717;DHT22;46566;52.700;6.192;2023-04-25T04:26:41;5.50;99.90
60717;DHT22;46566;52.700;6.192;2023-04-25T04:29:28;5.50;99.90
60717;DHT22;46566;52.700;6.192;2023-04-25T04:31:59;5.50;99.90
60717;DHT22;46566;52.700;6.192;2023-04-25T04:34:27;5.50;99.90
60717;DHT22;46566;52.700;6.192;2023-04-25T04:36:53;5.40;99.90
60717;DHT22;46566;52.700;6.192;2023-04-25T04:39:19;5.40;99.90
60717;DHT22;46566;52.700;6.192;2023-04-25T04:42:06;5.40;99.90
60717;DHT22;46566;52.700;6.192;2023-04-25T04:44:41;5.40;99.90
60717;DHT22;46566;52.700;6.192;2023-04-25T04:47:25;5.40;99.90
60717;DHT22;46566;52.700;6.192;2023-04-25T04:49:58;5.40;99.90
60717;DHT22;46566;52.700;6.192;2023-04-25T04:52:43;5.40;99.90
60717;DHT22;46566;52.700;6.192;2023-04-25T04:55:37;5.40;99.90
60717;DHT22;46566;52.700;6.192;2023-04-25T04:58:23;5.40;99.90
60717;DHT22;46566;52.700;6.192;2023-04-25T05:01:12;5.40;99.90
60717;DHT22;46566;52.700;6.192;2023-04-25T05:03:56;5.40;99.90
60717;DHT22;46566;52.700;6.192;2023-04-25T05:06:44;5.40;99.90
60717;DHT22;46566;52.700;6.192;2023-04-25T05:09:24;5.40;99.90
60717;DHT22;46566;52.700;6.192;2023-04-25T05:12:07;5.40;99.90
60717;DHT22;46566;52.700;6.192;2023-04-25T05:14:50;5.40;99.90
60717;DHT22;46566;52.700;6.192;2023-04-25T05:17:48;5.40;99.90
60717;DHT22;46566;52.700;6.192;2023-04-25T05:20:35;5.40;99.90
60717;DHT22;46566;52.700;6.192;2023-04-25T05:23:25;5.40;99.90
60717;DHT22;46566;52.700;6.192;2023-04-25T05:26:02;5.40;99.90
60717;DHT22;46566;52.700;6.192;2023-04-25T05:28:43;5.40;99.90
60717;DHT22;46566;52.700;6.192;2023-04-25T05:31:36;5.30;99.90
60717;DHT22;46566;52.700;6.192;2023-04-25T05:36:53;5.30;99.90
60717;DHT22;46566;52.700;6.192;2023-04-25T06:00:50;5.30;99.90
60717;DHT22;46566;52.700;6.192;2023-04-25T06:03:16;5.90;99.90
60717;DHT22;46566;52.700;6.192;2023-04-25T06:05:44;5.90;99.90
60717;DHT22;46566;52.700;6.192;2023-04-25T06:08:10;5.90;99.90
60717;DHT22;46566;52.700;6.192;2023-04-25T06:10:37;5.90;99.90
60717;DHT22;46566;52.700;6.192;2023-04-25T06:13:21;6.00;99.90
60717;DHT22;46566;52.700;6.192;2023-04-25T06:15:47;6.00;99.90
60717;DHT22;46566;52.700;6.192;2023-04-25T08:12:37;9.30;99.90
60717;DHT22;46566;52.700;6.192;2023-04-25T08:15:03;9.00;99.90
60717;DHT22;46566;52.700;6.192;2023-04-25T08:17:33;8.50;99.90
60717;DHT22;46566;52.700;6.192;2023-04-25T08:19:58;8.20;99.90
60717;DHT22;46566;52.700;6.192;2023-04-25T08:22:46;7.90;99.90
60717;DHT22;46566;52.700;6.192;2023-04-25T08:25:30;7.80;99.90
60717;DHT22;46566;52.700;6.192;2023-04-25T08:27:56;7.70;99.90
60717;DHT22;46566;52.700;6.192;2023-04-25T08:30:48;7.70;99.90
60717;DHT22;46566;52.700;6.192;2023-04-25T08:33:15;7.70;99.90
60717;DHT22;46566;52.700;6.192;2023-04-25T08:36:25;7.80;99.90
60717;DHT22;46566;52.700;6.192;2023-04-25T08:38:51;7.80;99.90
60717;DHT22;46566;52.700;6.192;2023-04-25T08:41:19;7.90;99.90
60717;DHT22;46566;52.700;6.192;2023-04-25T08:43:48;8.40;99.90
60717;DHT22;46566;52.700;6.192;2023-04-25T08:52:11;8.80;99.90
60717;DHT22;46566;52.700;6.192;2023-04-25T08:54:42;13.10;99.90
60717;DHT22;46566;52.700;6.192;2023-04-25T08:57:11;13.70;99.90
60717;DHT22;46566;52.700;6.192;2023-04-25T08:59:57;13.80;99.90
60717;DHT22;46566;52.700;6.192;2023-04-25T09:02:24;14.00;99.90
60717;DHT22;46566;52.700;6.192;2023-04-25T09:04:51;14.20;99.90
60717;DHT22;46566;52.700;6.192;2023-04-25T09:07:20;14.50;97.30
60717;DHT22;46566;52.700;6.192;2023-04-25T09:10:05;13.90;90.70
60717;DHT22;46566;52.700;6.192;2023-04-25T09:12:35;12.80;93.00
60717;DHT22;46566;52.700;6.192;2023-04-25T09:15:10;12.10;95.60
60717;DHT22;46566;52.700;6.192;2023-04-25T09:18:05;11.50;99.90
60717;DHT22;46566;52.700;6.192;2023-04-25T09:20:43;11.10;99.90
60717;DHT22;46566;52.700;6.192;2023-04-25T09:26:02;11.60;99.90
60717;DHT22;46566;52.700;6.192;2023-04-25T09:28:28;11.90;99.90
60717;DHT22;46566;52.700;6.192;2023-04-25T09:33:42;12.10;99.90
60717;DHT22;46566;52.700;6.192;2023-04-25T09:36:10;12.10;99.90
60717;DHT22;46566;52.700;6.192;2023-04-25T09:38:59;12.10;99.90
60717;DHT22;46566;52.700;6.192;2023-04-25T09:41:45;12.20;95.90
60717;DHT22;46566;52.700;6.192;2023-04-25T09:44:19;12.30;91.90
60717;DHT22;46566;52.700;6.192;2023-04-25T09:47:23;12.30;99.90
60717;DHT22;46566;52.700;6.192;2023-04-25T09:50:17;12.40;99.90
60717;DHT22;46566;52.700;6.192;2023-04-25T09:53:07;12.40;83.60
60717;DHT22;46566;52.700;6.192;2023-04-25T10:22:50;12.50;92.60
60717;DHT22;46566;52.700;6.192;2023-04-25T10:25:45;11.90;99.90
60717;DHT22;46566;52.700;6.192;2023-04-25T10:28:11;11.30;99.90
60717;DHT22;46566;52.700;6.192;2023-04-25T10:37:01;10.20;99.90
60717;DHT22;46566;52.700;6.192;2023-04-25T10:39:29;10.00;99.90
60717;DHT22;46566;52.700;6.192;2023-04-25T10:41:58;10.00;99.90
60717;DHT22;46566;52.700;6.192;2023-04-25T10:47:35;10.00;99.90
60717;DHT22;46566;52.700;6.192;2023-04-25T10:50:36;10.10;99.90
60717;DHT22;46566;52.700;6.192;2023-04-25T10:53:14;10.00;99.90
60717;DHT22;46566;52.700;6.192;2023-04-25T10:56:40;9.90;99.90
60717;DHT22;46566;52.700;6.192;2023-04-25T10:59:19;10.00;99.90
60717;DHT22;46566;52.700;6.192;2023-04-25T11:01:48;10.10;99.90
60717;DHT22;46566;52.700;6.192;2023-04-25T11:04:20;10.20;99.90
60717;DHT22;46566;52.700;6.192;2023-04-25T11:07:23;10.40;99.90
60717;DHT22;46566;52.700;6.192;2023-04-25T11:09:51;10.60;99.90
60717;DHT22;46566;52.700;6.192;2023-04-25T11:12:17;10.90;99.90
60717;DHT22;46566;52.700;6.192;2023-04-25T11:14:43;11.20;99.90
60717;DHT22;46566;52.700;6.192;2023-04-25T11:17:25;11.40;99.90
60717;DHT22;46566;52.700;6.192;2023-04-25T11:19:50;11.70;99.90
60717;DHT22;46566;52.700;6.192;2023-04-25T11:22:16;11.80;99.90
60717;DHT22;46566;52.700;6.192;2023-04-25T11:24:42;11.90;99.90
60717;DHT22;46566;52.700;6.192;2023-04-25T11:33:16;12.50;99.90
60717;DHT22;46566;52.700;6.192;2023-04-25T11:35:42;12.80;93.90
60717;DHT22;46566;52.700;6.192;2023-04-25T11:38:08;13.00;95.80
60717;DHT22;46566;52.700;6.192;2023-04-25T11:46:58;12.80;79.00
60717;DHT22;46566;52.700;6.192;2023-04-25T11:49:30;12.70;75.50
60717;DHT22;46566;52.700;6.192;2023-04-25T11:52:14;12.90;76.10
60717;DHT22;46566;52.700;6.192;2023-04-25T11:54:40;12.90;74.30
60717;DHT22;46566;52.700;6.192;2023-04-25T11:57:06;12.80;71.80
60717;DHT22;46566;52.700;6.192;2023-04-25T11:59:32;12.40;99.90
60717;DHT22;46566;52.700;6.192;2023-04-25T12:01:58;12.00;99.90
60717;DHT22;46566;52.700;6.192;2023-04-25T12:04:41;11.50;99.90
60717;DHT22;46566;52.700;6.192;2023-04-25T12:07:10;11.20;99.90
60717;DHT22;46566;52.700;6.192;2023-04-25T12:09:35;10.90;99.90
60717;DHT22;46566;52.700;6.192;2023-04-25T12:12:02;10.70;99.90
60717;DHT22;46566;52.700;6.192;2023-04-25T12:17:33;10.70;99.90
60717;DHT22;46566;52.700;6.192;2023-04-25T12:19:59;11.00;99.90
60717;DHT22;46566;52.700;6.192;2023-04-25T12:22:50;11.20;99.90
60717;DHT22;46566;52.700;6.192;2023-04-25T12:25:41;11.50;99.90
60717;DHT22;46566;52.700;6.192;2023-04-25T12:28:32;11.40;99.90
60717;DHT22;46566;52.700;6.192;2023-04-25T12:31:07;11.10;99.90
60717;DHT22;46566;52.700;6.192;2023-04-25T12:33:37;10.90;99.90
60717;DHT22;46566;52.700;6.192;2023-04-25T12:36:20;10.90;99.90
60717;DHT22;46566;52.700;6.192;2023-04-25T12:38:47;11.00;99.90
60717;DHT22;46566;52.700;6.192;2023-04-25T12:41:16;11.10;99.90
60717;DHT22;46566;52.700;6.192;2023-04-25T12:43:42;11.20;99.90
60717;DHT22;46566;52.700;6.192;2023-04-25T12:46:23;11.30;98.40
60717;DHT22;46566;52.700;6.192;2023-04-25T12:48:49;11.30;80.20
60717;DHT22;46566;52.700;6.192;2023-04-25T12:51:15;11.20;80.10
60717;DHT22;46566;52.700;6.192;2023-04-25T12:53:41;11.20;93.80
60717;DHT22;46566;52.700;6.192;2023-04-25T12:59:02;11.60;88.70
60717;DHT22;46566;52.700;6.192;2023-04-25T13:01:29;11.90;99.90
60717;DHT22;46566;52.700;6.192;2023-04-25T13:03:55;12.10;85.30
60717;DHT22;46566;52.700;6.192;2023-04-25T13:06:46;12.40;78.10
60717;DHT22;46566;52.700;6.192;2023-04-25T13:09:21;12.30;78.00
60717;DHT22;46566;52.700;6.192;2023-04-25T13:11:50;12.30;90.80
60717;DHT22;46566;52.700;6.192;2023-04-25T13:14:40;12.10;99.90
60717;DHT22;46566;52.700;6.192;2023-04-25T13:17:08;11.80;99.90
60717;DHT22;46566;52.700;6.192;2023-04-25T13:19:34;11.50;99.90
60717;DHT22;46566;52.700;6.192;2023-04-25T13:22:03;11.40;99.90
60717;DHT22;46566;52.700;6.192;2023-04-25T13:24:47;11.60;99.90
60717;DHT22;46566;52.700;6.192;2023-04-25T13:27:13;11.80;99.90
60717;DHT22;46566;52.700;6.192;2023-04-25T13:29:39;11.80;99.90
60717;DHT22;46566;52.700;6.192;2023-04-25T13:32:06;11.70;99.90
60717;DHT22;46566;52.700;6.192;2023-04-25T13:34:57;11.50;91.30
60717;DHT22;46566;52.700;6.192;2023-04-25T13:37:23;11.30;99.90
60717;DHT22;46566;52.700;6.192;2023-04-25T13:39:50;11.40;99.90
60717;DHT22;46566;52.700;6.192;2023-04-25T13:42:16;11.60;99.90
60717;DHT22;46566;52.700;6.192;2023-04-25T13:45:07;11.70;97.10
60717;DHT22;46566;52.700;6.192;2023-04-25T13:47:34;11.80;92.80
60717;DHT22;46566;52.700;6.192;2023-04-25T13:50:00;11.70;87.30
60717;DHT22;46566;52.700;6.192;2023-04-25T13:52:48;11.50;87.30
60717;DHT22;46566;52.700;6.192;2023-04-25T13:55:14;11.20;99.90
60717;DHT22;46566;52.700;6.192;2023-04-25T13:57:57;11.10;99.90
60717;DHT22;46566;52.700;6.192;2023-04-25T14:00:47;10.80;99.90
60717;DHT22;46566;52.700;6.192;2023-04-25T14:03:16;10.70;99.90
60717;DHT22;46566;52.700;6.192;2023-04-25T14:05:41;10.60;91.30
60717;DHT22;46566;52.700;6.192;2023-04-25T14:08:08;10.60;95.40
60717;DHT22;46566;52.700;6.192;2023-04-25T14:10:59;10.70;99.90
60717;DHT22;46566;52.700;6.192;2023-04-25T14:13:26;11.00;99.90
60717;DHT22;46566;52.700;6.192;2023-04-25T14:15:52;11.00;99.90
60717;DHT22;46566;52.700;6.192;2023-04-25T14:18:18;10.90;99.90
60717;DHT22;46566;52.700;6.192;2023-04-25T14:21:09;11.00;99.90
60717;DHT22;46566;52.700;6.192;2023-04-25T14:23:35;10.80;99.90
60717;DHT22;46566;52.700;6.192;2023-04-25T14:26:01;10.80;99.90
60717;DHT22;46566;52.700;6.192;2023-04-25T14:28:27;10.80;99.90
60717;DHT22;46566;52.700;6.192;2023-04-25T14:31:18;10.80;99.90
60717;DHT22;46566;52.700;6.192;2023-04-25T14:33:44;10.80;99.90
60717;DHT22;46566;52.700;6.192;2023-04-25T14:36:10;10.90;99.90
60717;DHT22;46566;52.700;6.192;2023-04-25T14:38:36;11.10;99.90
60717;DHT22;46566;52.700;6.192;2023-04-25T14:41:28;11.20;96.00
60717;DHT22;46566;52.700;6.192;2023-04-25T14:43:53;11.10;99.90
60717;DHT22;46566;52.700;6.192;2023-04-25T14:46:20;11.10;99.90
60717;DHT22;46566;52.700;6.192;2023-04-25T14:48:47;11.00;99.90
60717;DHT22;46566;52.700;6.192;2023-04-25T14:51:51;11.00;99.90
60717;DHT22;46566;52.700;6.192;2023-04-25T14:54:17;10.80;99.90
60717;DHT22;46566;52.700;6.192;2023-04-25T14:57:07;10.60;99.90
60717;DHT22;46566;52.700;6.192;2023-04-25T14:59:36;10.50;99.90
60717;DHT22;46566;52.700;6.192;2023-04-25T15:02:02;10.30;99.90
60717;DHT22;46566;52.700;6.192;2023-04-25T15:04:28;10.20;99.90
60717;DHT22;46566;52.700;6.192;2023-04-25T15:10:10;10.30;99.90
60717;DHT22;46566;52.700;6.192;2023-04-25T15:12:55;10.50;99.90
60717;DHT22;46566;52.700;6.192;2023-04-25T15:15:21;10.80;99.90
60717;DHT22;46566;52.700;6.192;2023-04-25T15:17:47;11.10;99.90
60717;DHT22;46566;52.700;6.192;2023-04-25T15:20:13;11.40;99.90
60717;DHT22;46566;52.700;6.192;2023-04-25T15:22:54;11.50;99.90
60717;DHT22;46566;52.700;6.192;2023-04-25T15:25:22;11.60;99.90
60717;DHT22;46566;52.700;6.192;2023-04-25T15:27:48;11.70;99.90
60717;DHT22;46566;52.700;6.192;2023-04-25T15:30:27;11.70;99.90
60717;DHT22;46566;52.700;6.192;2023-04-25T15:33:04;11.60;99.90
60717;DHT22;46566;52.700;6.192;2023-04-25T15:35:30;11.50;99.90
60717;DHT22;46566;52.700;6.192;2023-04-25T15:37:56;11.40;99.90
60717;DHT22;46566;52.700;6.192;2023-04-25T15:40:21;11.20;92.80
60717;DHT22;46566;52.700;6.192;2023-04-25T15:42:48;11.10;81.40
60717;DHT22;46566;52.700;6.192;2023-04-25T15:45:36;11.00;88.10
60717;DHT22;46566;52.700;6.192;2023-04-25T15:48:02;10.80;86.50
60717;DHT22;46566;52.700;6.192;2023-04-25T15:50:28;10.70;90.60
60717;DHT22;46566;52.700;6.192;2023-04-25T15:52:53;10.60;83.50
60717;DHT22;46566;52.700;6.192;2023-04-25T15:55:45;10.50;90.60
60717;DHT22;46566;52.700;6.192;2023-04-25T15:58:11;10.40;99.90
60717;DHT22;46566;52.700;6.192;2023-04-25T16:03:32;10.10;99.90
60717;DHT22;46566;52.700;6.192;2023-04-25T16:05:58;10.00;99.90
60717;DHT22;46566;52.700;6.192;2023-04-25T16:08:24;10.00;99.90
60717;DHT22;46566;52.700;6.192;2023-04-25T16:10:50;9.90;99.90
60717;DHT22;46566;52.700;6.192;2023-04-25T16:13:48;9.80;99.90
60717;DHT22;46566;52.700;6.192;2023-04-25T16:16:14;9.70;99.90
60717;DHT22;46566;52.700;6.192;2023-04-25T16:18:41;9.70;99.90
60717;DHT22;46566;52.700;6.192;2023-04-25T16:24:02;9.70;99.90
60717;DHT22;46566;52.700;6.192;2023-04-25T16:26:28;9.70;99.90
60717;DHT22;46566;52.700;6.192;2023-04-25T16:28:54;9.70;99.90
60717;DHT22;46566;52.700;6.192;2023-04-25T16:31:44;9.80;99.90
60717;DHT22;46566;52.700;6.192;2023-04-25T16:34:12;9.80;99.90
60717;DHT22;46566;52.700;6.192;2023-04-25T16:36:38;9.90;99.90
60717;DHT22;46566;52.700;6.192;2023-04-25T16:39:04;9.90;99.90
60717;DHT22;46566;52.700;6.192;2023-04-25T16:41:58;9.80;99.90
60717;DHT22;46566;52.700;6.192;2023-04-25T16:44:23;9.80;99.90
60717;DHT22;46566;52.700;6.192;2023-04-25T16:46:49;9.80;99.90
60717;DHT22;46566;52.700;6.192;2023-04-25T16:49:15;9.70;99.90
60717;DHT22;46566;52.700;6.192;2023-04-25T16:52:06;9.70;99.90
60717;DHT22;46566;52.700;6.192;2023-04-25T16:54:32;9.70;99.90
60717;DHT22;46566;52.700;6.192;2023-04-25T16:56:58;9.80;99.90
60717;DHT22;46566;52.700;6.192;2023-04-25T16:59:24;9.80;99.90
60717;DHT22;46566;52.700;6.192;2023-04-25T17:02:15;9.90;99.90
60717;DHT22;46566;52.700;6.192;2023-04-25T17:04:41;9.90;99.90
60717;DHT22;46566;52.700;6.192;2023-04-25T17:07:07;9.80;99.90
60717;DHT22;46566;52.700;6.192;2023-04-25T17:09:33;9.70;99.90
60717;DHT22;46566;52.700;6.192;2023-04-25T17:12:24;9.60;99.90
60717;DHT22;46566;52.700;6.192;2023-04-25T17:17:48;9.50;99.90
60717;DHT22;46566;52.700;6.192;2023-04-25T17:20:14;9.50;99.90
60717;DHT22;46566;52.700;6.192;2023-04-25T17:22:40;9.50;99.90
60717;DHT22;46566;52.700;6.192;2023-04-25T17:25:07;9.50;99.90
60717;DHT22;46566;52.700;6.192;2023-04-25T17:27:34;9.50;99.90
60717;DHT22;46566;52.700;6.192;2023-04-25T17:30:26;9.40;99.90
60717;DHT22;46566;52.700;6.192;2023-04-25T17:32:52;9.40;99.90
60717;DHT22;46566;52.700;6.192;2023-04-25T17:35:18;9.30;99.90
60717;DHT22;46566;52.700;6.192;2023-04-25T17:37:44;9.30;99.90
60717;DHT22;46566;52.700;6.192;2023-04-25T17:40:35;9.30;99.90
60717;DHT22;46566;52.700;6.192;2023-04-25T17:43:01;9.30;99.90
60717;DHT22;46566;52.700;6.192;2023-04-25T17:45:27;9.30;99.90
60717;DHT22;46566;52.700;6.192;2023-04-25T17:48:14;9.20;99.90
60717;DHT22;46566;52.700;6.192;2023-04-25T17:50:40;9.20;99.90
60717;DHT22;46566;52.700;6.192;2023-04-25T17:53:06;9.30;99.90
60717;DHT22;46566;52.700;6.192;2023-04-25T17:55:31;9.20;99.90
60717;DHT22;46566;52.700;6.192;2023-04-25T17:57:57;9.20;99.90
60717;DHT22;46566;52.700;6.192;2023-04-25T18:00:48;9.10;99.90
60717;DHT22;46566;52.700;6.192;2023-04-25T18:03:15;9.10;99.90
60717;DHT22;46566;52.700;6.192;2023-04-25T18:05:41;9.00;99.90
60717;DHT22;46566;52.700;6.192;2023-04-25T18:08:07;9.00;99.90
60717;DHT22;46566;52.700;6.192;2023-04-25T18:10:58;8.90;99.90
60717;DHT22;46566;52.700;6.192;2023-04-25T18:13:24;8.80;99.90
60717;DHT22;46566;52.700;6.192;2023-04-25T18:15:50;8.70;99.90
60717;DHT22;46566;52.700;6.192;2023-04-25T18:18:16;8.60;99.90
60717;DHT22;46566;52.700;6.192;2023-04-25T18:21:03;8.60;99.90
60717;DHT22;46566;52.700;6.192;2023-04-25T18:23:31;8.50;99.90
60717;DHT22;46566;52.700;6.192;2023-04-25T18:26:04;8.40;99.90
60717;DHT22;46566;52.700;6.192;2023-04-25T18:28:48;8.40;99.90
60717;DHT22;46566;52.700;6.192;2023-04-25T18:31:13;8.30;99.90
60717;DHT22;46566;52.700;6.192;2023-04-25T18:33:41;8.30;99.90
60717;DHT22;46566;52.700;6.192;2023-04-25T18:36:07;8.30;99.90
60717;DHT22;46566;52.700;6.192;2023-04-25T18:44:11;8.20;99.90
60717;DHT22;46566;52.700;6.192;2023-04-25T18:47:02;8.20;99.90
60717;DHT22;46566;52.700;6.192;2023-04-25T18:49:27;8.20;99.90
60717;DHT22;46566;52.700;6.192;2023-04-25T18:51:53;8.10;99.90
60717;DHT22;46566;52.700;6.192;2023-04-25T18:54:20;8.10;99.90
60717;DHT22;46566;52.700;6.192;2023-04-25T18:59:34;7.90;99.90
60717;DHT22;46566;52.700;6.192;2023-04-25T19:02:00;7.90;99.90
60717;DHT22;46566;52.700;6.192;2023-04-25T19:04:28;7.80;99.90
60717;DHT22;46566;52.700;6.192;2023-04-25T19:06:53;7.70;99.90
60717;DHT22;46566;52.700;6.192;2023-04-25T19:09:19;7.70;99.90
60717;DHT22;46566;52.700;6.192;2023-04-25T19:11:45;7.60;99.90
60717;DHT22;46566;52.700;6.192;2023-04-25T19:14:12;7.60;99.90
60717;DHT22;46566;52.700;6.192;2023-04-25T19:16:38;7.50;99.90
60717;DHT22;46566;52.700;6.192;2023-04-25T19:19:05;7.50;99.90
60717;DHT22;46566;52.700;6.192;2023-04-25T19:21:32;7.40;99.90
60717;DHT22;46566;52.700;6.192;2023-04-25T19:23:58;7.40;99.90
60717;DHT22;46566;52.700;6.192;2023-04-25T19:26:25;7.40;99.90
60717;DHT22;46566;52.700;6.192;2023-04-25T19:31:31;7.30;99.90
60717;DHT22;46566;52.700;6.192;2023-04-25T19:33:57;7.30;99.90
60717;DHT22;46566;52.700;6.192;2023-04-25T19:36:23;7.20;99.90
60717;DHT22;46566;52.700;6.192;2023-04-25T19:38:49;7.20;99.90
60717;DHT22;46566;52.700;6.192;2023-04-25T19:41:15;7.20;99.90
60717;DHT22;46566;52.700;6.192;2023-04-25T19:43:42;7.10;99.90
60717;DHT22;46566;52.700;6.192;2023-04-25T19:46:08;7.10;99.90
60717;DHT22;46566;52.700;6.192;2023-04-25T19:48:33;7.00;99.90
60717;DHT22;46566;52.700;6.192;2023-04-25T19:50:59;7.00;99.90
60717;DHT22;46566;52.700;6.192;2023-04-25T19:53:25;6.90;99.90
60717;DHT22;46566;52.700;6.192;2023-04-25T19:55:51;6.90;99.90
60717;DHT22;46566;52.700;6.192;2023-04-25T19:58:16;6.80;99.90
60717;DHT22;46566;52.700;6.192;2023-04-25T20:00:42;6.80;99.90
60717;DHT22;46566;52.700;6.192;2023-04-25T20:03:08;6.80;99.90
60717;DHT22;46566;52.700;6.192;2023-04-25T20:05:35;6.70;99.90
60717;DHT22;46566;52.700;6.192;2023-04-25T20:08:00;6.70;99.90
60717;DHT22;46566;52.700;6.192;2023-04-25T20:10:26;6.70;99.90
60717;DHT22;46566;52.700;6.192;2023-04-25T20:12:52;6.60;99.90
60717;DHT22;46566;52.700;6.192;2023-04-25T20:15:18;6.50;99.90
60717;DHT22;46566;52.700;6.192;2023-04-25T20:17:44;6.50;99.90
60717;DHT22;46566;52.700;6.192;2023-04-25T20:20:11;6.50;99.90
60717;DHT22;46566;52.700;6.192;2023-04-25T20:22:37;6.40;99.90
60717;DHT22;46566;52.700;6.192;2023-04-25T20:25:05;6.40;99.90
60717;DHT22;46566;52.700;6.192;2023-04-25T20:27:31;6.30;99.90
60717;DHT22;46566;52.700;6.192;2023-04-25T20:29:57;6.30;99.90